Weather reports worldwide

Advertisment
Apt, France (7657): temperature & dewpoint: 12.01.2018 07:00:00 - 18.01.2018 07:00:00 (CET)Apt, France (7657): wind speed & gusts: 12.01.2018 07:00:00 - 18.01.2018 07:00:00 (CET)Apt, France (7657): wind direction: 12.01.2018 07:00:00 - 18.01.2018 07:00:00 (CET)Apt, France (7657): precipitation: 12.01.2018 07:00:00 - 18.01.2018 07:00:00 (CET)
Date & Time tt [°C] td [°C] ff [km/h] ff [kn] fx [km/h] fx [kn] dd rr [mm]
18.01.2018 07:00:00 - - - - - - - -
18.01.2018 06:00:00 2,2 -3,7 28 15 39 21 NNW 0,0
18.01.2018 05:00:00 2,3 -4,5 16 9 31 17 NW 0,0
18.01.2018 04:00:00 1,6 -4,9 11 6 26 14 W 0,0
18.01.2018 03:00:00 1,5 -5,0 11 6 41 22 W 0,0
18.01.2018 02:00:00 1,9 -5,3 26 14 70 38 NNW 0,0
18.01.2018 01:00:00 2,1 -5,3 46 25 67 36 NNW -
18.01.2018 00:00:00 2,0 -5,6 29 16 55 30 NW 0,0
17.01.2018 23:00:00 1,9 -5,7 24 13 52 28 NW 0,0
17.01.2018 22:00:00 1,9 -6,2 24 13 46 25 NW 0,0
17.01.2018 21:00:00 2,2 -6,4 24 13 52 28 WNW 0,0
17.01.2018 20:00:00 2,5 -6,9 29 16 65 35 NW 0,0
17.01.2018 19:00:00 2,6 -7,1 28 15 59 32 WNW -
17.01.2018 18:00:00 2,7 -6,4 24 13 67 36 NW 0,0
17.01.2018 17:00:00 3,3 -6,4 28 15 61 33 NW 0,0
17.01.2018 16:00:00 3,7 -7,2 29 16 67 36 NW 0,0
17.01.2018 15:00:00 4,4 -5,9 41 22 94 51 NW 0,0
17.01.2018 14:00:00 5,3 -5,4 34 18 76 41 NW 0,0
17.01.2018 13:00:00 4,6 -4,9 31 17 78 42 NW -
17.01.2018 12:00:00 4,6 -3,4 34 18 80 43 NW 0,0
17.01.2018 11:00:00 3,8 -3,5 35 19 80 43 NW 0,0
17.01.2018 10:00:00 3,6 -3,5 37 20 80 43 NW 0,0
17.01.2018 09:00:00 3,7 -3,6 37 20 78 42 NW 0,0
17.01.2018 08:00:00 3,4 -2,6 42 23 87 47 NNW 0,0
17.01.2018 07:00:00 3,4 -0,3 50 27 80 43 NNW -
17.01.2018 06:00:00 5,2 -0,2 37 20 78 42 NW 0,0
17.01.2018 05:00:00 5,6 1,7 24 13 67 36 NW 0,0
17.01.2018 04:00:00 6,2 2,1 34 18 70 38 WNW 0,0
17.01.2018 03:00:00 6,6 4,6 29 16 55 30 WNW 0,4
17.01.2018 02:00:00 7,1 5,2 24 13 54 29 WNW 0,8
17.01.2018 01:00:00 7,1 6,2 16 9 42 23 WNW -
17.01.2018 00:00:00 7,2 6,1 21 11 48 26 W 1,0
16.01.2018 23:00:00 7,3 6,1 21 11 41 22 W 0,8
16.01.2018 22:00:00 7,3 6,1 18 10 41 22 W 0,2
16.01.2018 21:00:00 7,5 6,1 16 9 34 18 W 0,6
16.01.2018 20:00:00 7,6 5,9 11 6 28 15 WNW 0,0
16.01.2018 19:00:00 7,2 5,0 5 3 13 7 WNW -
16.01.2018 18:00:00 7,6 4,7 8 4 26 14 W 0,0
16.01.2018 17:00:00 8,0 4,9 15 8 29 16 W 0,0
16.01.2018 16:00:00 8,3 5,4 16 9 31 17 W 0,0
16.01.2018 15:00:00 7,8 5,9 16 9 37 20 WNW 0,0
16.01.2018 14:00:00 7,5 6,0 15 8 37 20 WNW 0,0
16.01.2018 13:00:00 7,3 6,1 18 10 39 21 W -
16.01.2018 12:00:00 7,1 6,4 16 9 34 18 WNW 0,0
16.01.2018 11:00:00 6,5 6,1 16 9 31 17 W 0,2
16.01.2018 10:00:00 5,4 5,0 11 6 18 10 WNW 0,0
16.01.2018 09:00:00 4,3 4,0 5 3 15 8 NW 0,4
16.01.2018 08:00:00 3,6 3,3 8 4 15 8 NW 0,0
16.01.2018 07:00:00 3,1 2,7 5 3 13 7 NW -
16.01.2018 06:00:00 3,2 2,8 5 3 15 8 NNW 0,8
16.01.2018 05:00:00 3,7 2,8 8 4 24 13 WNW 0,2
16.01.2018 04:00:00 3,7 2,1 18 10 46 25 W 0,2
16.01.2018 03:00:00 3,4 1,8 16 9 31 17 W 0,4
16.01.2018 02:00:00 3,2 1,7 8 4 24 13 W 0,0
16.01.2018 01:00:00 3,4 1,6 13 7 26 14 W -
16.01.2018 00:00:00 3,2 1,7 9 5 24 13 W 0,4
15.01.2018 23:00:00 3,7 2,1 11 6 22 12 W 0,2
15.01.2018 22:00:00 3,7 1,7 8 4 21 11 WSW 0,0
15.01.2018 21:00:00 3,7 2,1 11 6 29 16 WSW 2,0
15.01.2018 20:00:00 4,2 2,4 4 2 18 10 WSW 0,0
15.01.2018 19:00:00 4,5 1,9 8 4 18 10 SSW -
15.01.2018 18:00:00 4,6 1,6 5 3 15 8 S 0,0
15.01.2018 17:00:00 5,3 1,0 4 2 11 6 SSE 0,0
15.01.2018 16:00:00 5,8 0,1 0 0 21 11 N 0,0
15.01.2018 15:00:00 5,8 0,5 2 1 8 4 WSW 0,0
15.01.2018 14:00:00 5,6 0,8 5 3 13 7 E 0,0
15.01.2018 13:00:00 5,3 1,0 8 4 13 7 ESE -
15.01.2018 12:00:00 4,4 0,7 4 2 8 4 SSE 0,0
15.01.2018 11:00:00 3,0 0,4 0 0 5 3 N 0,0
15.01.2018 10:00:00 0,7 -0,6 0 0 2 1 N 0,0
15.01.2018 09:00:00 -0,1 -0,8 0 0 4 2 N 0,0
15.01.2018 08:00:00 -0,9 -1,7 4 2 8 4 W 0,0
15.01.2018 07:00:00 -0,6 -1,3 0 0 4 2 N -
15.01.2018 06:00:00 -1,0 -1,6 2 1 8 4 WSW 0,0
15.01.2018 05:00:00 -1,9 -2,5 2 1 8 4 W 0,0
15.01.2018 04:00:00 -2,0 -3,0 2 1 11 6 NW 0,0
15.01.2018 03:00:00 -0,7 -1,5 4 2 8 4 SW 0,0
15.01.2018 02:00:00 0,1 -0,8 2 1 5 3 NNE 0,0
15.01.2018 01:00:00 0,7 0,0 5 3 8 4 WSW -
15.01.2018 00:00:00 0,3 -0,7 0 0 4 2 N 0,0
14.01.2018 23:00:00 0,5 -0,5 0 0 5 3 N 0,0
14.01.2018 22:00:00 0,4 -0,3 4 2 8 4 SW 0,0
14.01.2018 21:00:00 1,6 0,1 5 3 9 5 SSW 0,0
14.01.2018 20:00:00 2,6 0,8 8 4 15 8 E 0,0
14.01.2018 19:00:00 3,0 0,9 9 5 28 15 SE -
14.01.2018 18:00:00 3,8 1,2 15 8 26 14 ESE 0,0
14.01.2018 17:00:00 4,3 1,2 15 8 31 17 SE 0,0
14.01.2018 16:00:00 4,8 0,7 16 9 26 14 SE 0,0
14.01.2018 15:00:00 5,5 0,5 16 9 24 13 SE 0,0
14.01.2018 14:00:00 5,4 0,0 15 8 29 16 ESE 0,0
14.01.2018 13:00:00 5,0 -0,6 15 8 29 16 ESE -
14.01.2018 12:00:00 4,7 -0,7 13 7 31 17 SE 0,0
14.01.2018 11:00:00 4,8 -1,2 13 7 24 13 SE 0,0
14.01.2018 10:00:00 4,2 -0,4 9 5 15 8 SE 0,0
14.01.2018 09:00:00 2,8 -0,8 4 2 9 5 S 0,0
14.01.2018 08:00:00 2,6 -0,5 5 3 16 9 SSE 0,0
14.01.2018 07:00:00 2,4 0,0 11 6 18 10 SE -
14.01.2018 06:00:00 2,4 0,5 9 5 21 11 SE 0,0
14.01.2018 05:00:00 2,1 0,8 9 5 15 8 SSE 0,0
14.01.2018 04:00:00 2,3 0,8 5 3 11 6 SSE 0,0
14.01.2018 03:00:00 2,4 1,1 4 2 13 7 ESE 0,0
14.01.2018 02:00:00 2,6 1,4 5 3 15 8 SE 0,0
14.01.2018 01:00:00 2,9 1,7 9 5 18 10 SE -
14.01.2018 00:00:00 3,1 2,2 11 6 22 12 SE 0,0
13.01.2018 23:00:00 2,7 1,8 5 3 13 7 SSE 0,0
13.01.2018 22:00:00 2,4 1,5 4 2 13 7 SSE 0,0
13.01.2018 21:00:00 1,0 0,1 5 3 9 5 SSE 0,0
13.01.2018 20:00:00 1,7 0,5 0 0 9 5 N 0,0
13.01.2018 19:00:00 2,7 0,8 4 2 9 5 S -
13.01.2018 18:00:00 3,3 1,0 5 3 11 6 SSE 0,0
13.01.2018 17:00:00 4,5 1,2 8 4 13 7 SE 0,0
13.01.2018 16:00:00 4,9 1,6 9 5 21 11 SE 0,0
13.01.2018 15:00:00 6,5 1,2 15 8 26 14 SE 0,0
13.01.2018 14:00:00 7,1 0,5 15 8 28 15 SE 0,0
13.01.2018 13:00:00 6,9 0,6 15 8 26 14 SE -
13.01.2018 12:00:00 6,4 -0,1 15 8 26 14 SE 0,0
13.01.2018 11:00:00 5,6 -0,1 13 7 26 14 SE 0,0
13.01.2018 10:00:00 2,8 0,2 4 2 13 7 E 0,0
13.01.2018 09:00:00 -3,5 -4,3 4 2 8 4 SSW 0,0
13.01.2018 08:00:00 -5,8 -6,8 2 1 8 4 SSW 0,0
13.01.2018 07:00:00 -5,4 -6,9 0 0 4 2 N -
13.01.2018 06:00:00 -5,4 -6,4 0 0 4 2 N 0,0
13.01.2018 05:00:00 -4,5 -5,2 0 0 5 3 N 0,0
13.01.2018 04:00:00 -4,9 -5,9 2 1 4 2 WSW 0,0
13.01.2018 03:00:00 -4,8 -6,0 4 2 8 4 W 0,0
13.01.2018 02:00:00 -4,6 -5,8 4 2 8 4 W 0,0
13.01.2018 01:00:00 -3,8 -4,8 4 2 8 4 W -
13.01.2018 00:00:00 -3,0 -3,8 4 2 8 4 W 0,0
12.01.2018 23:00:00 -3,5 -4,9 0 0 8 4 N 0,0
12.01.2018 22:00:00 -3,1 -4,4 2 1 5 3 NNW 0,0
12.01.2018 21:00:00 -2,2 -3,0 4 2 8 4 WSW 0,0
12.01.2018 20:00:00 -1,1 -3,3 0 0 13 7 N 0,0
12.01.2018 19:00:00 -0,5 -2,2 4 2 9 5 WSW -
12.01.2018 18:00:00 1,0 -2,1 8 4 15 8 WNW 0,0
12.01.2018 17:00:00 5,7 -1,2 8 4 13 7 W 0,0
12.01.2018 16:00:00 8,5 -1,3 8 4 18 10 WNW 0,0
12.01.2018 15:00:00 9,2 -2,7 9 5 18 10 NW 0,0
12.01.2018 14:00:00 8,8 -1,9 13 7 22 12 NW 0,0
12.01.2018 13:00:00 8,6 -1,0 9 5 18 10 WNW -
12.01.2018 12:00:00 7,7 -1,8 9 5 18 10 NW 0,0
12.01.2018 11:00:00 6,0 -1,9 11 6 21 11 NW 0,0
12.01.2018 10:00:00 4,7 -1,3 9 5 22 12 WNW 0,0
12.01.2018 09:00:00 2,9 -1,8 13 7 24 13 NW 0,0
12.01.2018 08:00:00 1,9 -2,2 13 7 24 13 NW 0,0
12.01.2018 07:00:00 2,3 -2,0 16 9 29 16 NW -

tt = temperature
td = dewpoint
ff = wind speed
fx = gusts
dd = wind direction
rr = precipitation

Next stations